Sumise Maru No.22 — JD3589 — position and weather

sailwx.info

Track history (hours):
 
Tides and Currents Weather Stations Pressure Air Temp Water Temp Dewpoint Dewpoint Depression Visibility Wind Speed Wind Dir Waves Ship Positions

Sumise Maru No.22

Last reported at 2018-Jun-24 22:33 UTC. Time now 2018-Jun-25 11:25 UTC.
Position N 35°29' E 139°59'.

Length 116 m; draft 5.8 m.

Type: Cargo ship. MMSI: 431005246.

Date/timePositionNaut miles runAvg speedWind from/ knotsBaromVisibWave heightAir tempDewpointWater temp
2018-Jun-24 22:33N 35°29' E 139°59'0 5.4
2018-Jun-24 22:30N 35°29' E 139°59'510.3
2018-Jun-24 22:00N 35°29' E 139°53'612.9
2018-Jun-24 21:31N 35°25' E 139°47'612.6
2018-Jun-24 21:00N 35°19' E 139°44'611.3
2018-Jun-24 20:28N 35°13' E 139°47'612.0
2018-Jun-24 20:00N 35°08' E 139°46'612.4
2018-Jun-24 19:31N 35°02' E 139°42'612.3
2018-Jun-24 19:00N 34°59' E 139°35'  
2018-Jun-19 11:46N 35°07' E 139°44'413.6
2018-Jun-19 11:30N 35°11' E 139°45'611.8
2018-Jun-19 11:00N 35°16' E 139°45'612.2
2018-Jun-19 10:30N 35°22' E 139°42'612.2
2018-Jun-19 10:00N 35°27' E 139°47'612.8
2018-Jun-19 09:30N 35°31' E 139°53'2 0.2
2018-Jun-18 22:04N 35°32' E 139°55'112.3
2018-Jun-18 22:00N 35°32' E 139°55'612.2
2018-Jun-18 21:30N 35°27' E 139°50'611.2
2018-Jun-18 21:00N 35°26' E 139°43'2 3.1
2018-Jun-18 20:29N 35°26' E 139°41'0 0.0
2018-Jun-18 19:59N 35°26' E 139°41'0 0.0
2018-Jun-18 19:29N 35°26' E 139°41'0 0.0
2018-Jun-18 18:59N 35°26' E 139°41'0 0.0
2018-Jun-18 18:29N 35°26' E 139°41'0 0.0
2018-Jun-18 17:59N 35°26' E 139°41'0 0.0
2018-Jun-18 17:29N 35°26' E 139°41'0 0.0
2018-Jun-18 16:56N 35°26' E 139°41'0 0.0
2018-Jun-18 16:29N 35°26' E 139°41'0 0.0
2018-Jun-18 15:59N 35°26' E 139°41'0 0.0
2018-Jun-18 15:29N 35°26' E 139°41'0 0.0
2018-Jun-18 14:59N 35°26' E 139°41'0 0.0
2018-Jun-18 14:29N 35°26' E 139°41'0 0.0
2018-Jun-18 13:59N 35°26' E 139°41'0 0.0
2018-Jun-18 13:29N 35°26' E 139°41'0 0.0
2018-Jun-18 12:59N 35°26' E 139°41'0 0.0
2018-Jun-18 12:29N 35°26' E 139°41'0 0.0
2018-Jun-18 11:59N 35°26' E 139°41'0 0.0
2018-Jun-18 11:23N 35°26' E 139°41'0 0.0
2018-Jun-18 10:59N 35°26' E 139°41'0 0.0
2018-Jun-18 10:29N 35°26' E 139°41'0 0.0
2018-Jun-18 09:59N 35°26' E 139°41'0 0.0
2018-Jun-18 09:29N 35°26' E 139°41'0 0.0
2018-Jun-18 08:56N 35°26' E 139°41'0 0.0
2018-Jun-18 08:29N 35°26' E 139°41'0 0.0
2018-Jun-18 07:56N 35°26' E 139°41'0 0.0
2018-Jun-18 07:23N 35°26' E 139°41'0 0.0
2018-Jun-18 06:59N 35°26' E 139°41'0 0.0
2018-Jun-18 06:11N 35°26' E 139°41'0 0.0
2018-Jun-18 05:44N 35°26' E 139°41'0 0.0
2018-Jun-18 05:29N 35°26' E 139°41'0 0.0
2018-Jun-18 04:59N 35°26' E 139°41'0 0.0
2018-Jun-18 04:29N 35°26' E 139°41'0 0.0
2018-Jun-18 03:59N 35°26' E 139°41'0 0.0
2018-Jun-18 03:29N 35°26' E 139°41'0 0.0
2018-Jun-18 02:53N 35°26' E 139°41'0 0.0
2018-Jun-18 02:29N 35°26' E 139°41'0 0.0
2018-Jun-18 01:59N 35°26' E 139°41'0 0.0
2018-Jun-18 01:26N 35°26' E 139°41'0 0.0
2018-Jun-18 00:56N 35°26' E 139°41'0 0.0
2018-Jun-18 00:29N 35°26' E 139°41'0 0.0
2018-Jun-17 23:59N 35°26' E 139°41'0 0.0
2018-Jun-17 23:29N 35°26' E 139°41'0 0.0
2018-Jun-17 22:53N 35°26' E 139°41'0 0.0
2018-Jun-17 22:29N 35°26' E 139°41'1 1.6
2018-Jun-17 22:00N 35°25' E 139°42'611.5
2018-Jun-17 21:30N 35°19' E 139°43'612.3
2018-Jun-17 21:00N 35°14' E 139°47'612.4
2018-Jun-17 20:30N 35°08' E 139°45'24510.0
2018-Jun-16 20:04N 33°47' E 135°04'113.2
2018-Jun-16 20:00N 33°47' E 135°04'612.6
2018-Jun-16 19:30N 33°53' E 134°60'612.5
2018-Jun-16 19:00N 33°59' E 135°00'612.6
2018-Jun-16 18:30N 34°05' E 135°01'612.6
2018-Jun-16 18:00N 34°11' E 135°03'5 9.2
2018-Jun-16 17:30N 34°14' E 135°08'0 0.3
2018-Jun-16 16:59N 34°14' E 135°08'0 0.1
2018-Jun-16 16:29N 34°14' E 135°08'0 0.1
2018-Jun-16 15:59N 34°14' E 135°08'0 0.1
2018-Jun-16 15:29N 34°14' E 135°08'0 0.0
2018-Jun-16 14:59N 34°14' E 135°08'0 0.0
2018-Jun-16 14:29N 34°14' E 135°08'0 0.1
2018-Jun-16 13:59N 34°14' E 135°08'0 0.1
2018-Jun-16 13:29N 34°14' E 135°08'0 0.0
2018-Jun-16 12:56N 34°14' E 135°08'0 0.1
2018-Jun-16 12:29N 34°14' E 135°08'0 0.1
2018-Jun-16 11:56N 34°14' E 135°08'0 0.0
2018-Jun-16 11:29N 34°14' E 135°08'0 0.1
2018-Jun-16 10:59N 34°14' E 135°08'0 0.1
2018-Jun-16 10:29N 34°14' E 135°08'0 0.0
2018-Jun-16 09:59N 34°14' E 135°08'0 0.0
2018-Jun-16 09:29N 34°14' E 135°08'0 0.0
2018-Jun-16 08:59N 34°14' E 135°08'0 0.0
2018-Jun-16 08:29N 34°14' E 135°08'0 0.0
2018-Jun-16 07:59N 34°14' E 135°08'0 0.0
2018-Jun-16 07:29N 34°14' E 135°08'0 0.0
2018-Jun-16 06:59N 34°14' E 135°08'0 0.0
2018-Jun-16 06:29N 34°14' E 135°08'0 0.0
2018-Jun-16 05:59N 34°14' E 135°08'0 0.0
2018-Jun-16 05:29N 34°14' E 135°08'0 0.0
2018-Jun-16 04:56N 34°14' E 135°08'0 0.0
2018-Jun-16 04:29N 34°14' E 135°08'0 0.0
2018-Jun-16 03:59N 34°14' E 135°08'0 0.0
2018-Jun-16 03:29N 34°14' E 135°08'0 0.0
2018-Jun-16 02:59N 34°14' E 135°08'0 0.0
2018-Jun-16 02:29N 34°14' E 135°08'0 0.0
2018-Jun-16 01:56N 34°14' E 135°08'0 0.0
2018-Jun-16 01:29N 34°14' E 135°08'0 0.0
2018-Jun-16 00:59N 34°14' E 135°08'0 0.0
2018-Jun-16 00:29N 34°14' E 135°08'0 0.0
2018-Jun-15 23:59N 34°14' E 135°08'0 0.0
2018-Jun-15 23:29N 34°14' E 135°08'0 0.0
2018-Jun-15 22:59N 34°14' E 135°08'0 0.0
2018-Jun-15 22:29N 34°14' E 135°08'0 0.1
2018-Jun-15 22:00N 34°14' E 135°08'1 2.9
2018-Jun-15 21:31N 34°14' E 135°06'5 9.4
2018-Jun-15 21:01N 34°10' E 135°03'3 6.9
2018-Jun-15 20:30N 34°07' E 135°01'2 3.3
2018-Jun-15 20:01N 34°06' E 135°00'5 9.9
2018-Jun-15 19:31N 34°01' E 134°58'510.0
2018-Jun-15 19:00N 33°56' E 134°56'5 9.6
2018-Jun-15 18:26N 33°52' E 134°53'1110.3
2018-Jun-15 17:23N 33°43' E 134°45'  
Track history (hours):
 
Tides and Currents Weather Stations Pressure Air Temp Water Temp Dewpoint Dewpoint Depression Visibility Wind Speed Wind Dir Waves Ship Positions

Sumise Maru No.22

Last reported at 2018-Jun-24 22:33 UTC. Time now 2018-Jun-25 11:25 UTC.
Position N 35°29' E 139°59'.

Length 116 m; draft 5.8 m.

Type: Cargo ship. MMSI: 431005246.

Date/timePositionNaut miles runAvg speedWind from/ knotsBaromVisibWave heightAir tempDewpointWater temp
2018-Jun-24 22:33N 35°29' E 139°59'0 5.4
2018-Jun-24 22:30N 35°29' E 139°59'510.3
2018-Jun-24 22:00N 35°29' E 139°53'612.9
2018-Jun-24 21:31N 35°25' E 139°47'612.6
2018-Jun-24 21:00N 35°19' E 139°44'611.3
2018-Jun-24 20:28N 35°13' E 139°47'612.0
2018-Jun-24 20:00N 35°08' E 139°46'612.4
2018-Jun-24 19:31N 35°02' E 139°42'612.3
2018-Jun-24 19:00N 34°59' E 139°35'  
2018-Jun-19 11:46N 35°07' E 139°44'413.6
2018-Jun-19 11:30N 35°11' E 139°45'611.8
2018-Jun-19 11:00N 35°16' E 139°45'612.2
2018-Jun-19 10:30N 35°22' E 139°42'612.2
2018-Jun-19 10:00N 35°27' E 139°47'612.8
2018-Jun-19 09:30N 35°31' E 139°53'2 0.2
2018-Jun-18 22:04N 35°32' E 139°55'112.3
2018-Jun-18 22:00N 35°32' E 139°55'612.2
2018-Jun-18 21:30N 35°27' E 139°50'611.2
2018-Jun-18 21:00N 35°26' E 139°43'2 3.1
2018-Jun-18 20:29N 35°26' E 139°41'0 0.0
2018-Jun-18 19:59N 35°26' E 139°41'0 0.0
2018-Jun-18 19:29N 35°26' E 139°41'0 0.0
2018-Jun-18 18:59N 35°26' E 139°41'0 0.0
2018-Jun-18 18:29N 35°26' E 139°41'0 0.0
2018-Jun-18 17:59N 35°26' E 139°41'0 0.0
2018-Jun-18 17:29N 35°26' E 139°41'0 0.0
2018-Jun-18 16:56N 35°26' E 139°41'0 0.0
2018-Jun-18 16:29N 35°26' E 139°41'0 0.0
2018-Jun-18 15:59N 35°26' E 139°41'0 0.0
2018-Jun-18 15:29N 35°26' E 139°41'0 0.0
2018-Jun-18 14:59N 35°26' E 139°41'0 0.0
2018-Jun-18 14:29N 35°26' E 139°41'0 0.0
2018-Jun-18 13:59N 35°26' E 139°41'0 0.0
2018-Jun-18 13:29N 35°26' E 139°41'0 0.0
2018-Jun-18 12:59N 35°26' E 139°41'0 0.0
2018-Jun-18 12:29N 35°26' E 139°41'0 0.0
2018-Jun-18 11:59N 35°26' E 139°41'0 0.0
2018-Jun-18 11:23N 35°26' E 139°41'0 0.0
2018-Jun-18 10:59N 35°26' E 139°41'0 0.0
2018-Jun-18 10:29N 35°26' E 139°41'0 0.0
2018-Jun-18 09:59N 35°26' E 139°41'0 0.0
2018-Jun-18 09:29N 35°26' E 139°41'0 0.0
2018-Jun-18 08:56N 35°26' E 139°41'0 0.0
2018-Jun-18 08:29N 35°26' E 139°41'0 0.0
2018-Jun-18 07:56N 35°26' E 139°41'0 0.0
2018-Jun-18 07:23N 35°26' E 139°41'0 0.0
2018-Jun-18 06:59N 35°26' E 139°41'0 0.0
2018-Jun-18 06:11N 35°26' E 139°41'0 0.0
2018-Jun-18 05:44N 35°26' E 139°41'0 0.0
2018-Jun-18 05:29N 35°26' E 139°41'0 0.0
2018-Jun-18 04:59N 35°26' E 139°41'0 0.0
2018-Jun-18 04:29N 35°26' E 139°41'0 0.0
2018-Jun-18 03:59N 35°26' E 139°41'0 0.0
2018-Jun-18 03:29N 35°26' E 139°41'0 0.0
2018-Jun-18 02:53N 35°26' E 139°41'0 0.0
2018-Jun-18 02:29N 35°26' E 139°41'0 0.0
2018-Jun-18 01:59N 35°26' E 139°41'0 0.0
2018-Jun-18 01:26N 35°26' E 139°41'0 0.0
2018-Jun-18 00:56N 35°26' E 139°41'0 0.0
2018-Jun-18 00:29N 35°26' E 139°41'0 0.0
2018-Jun-17 23:59N 35°26' E 139°41'0 0.0
2018-Jun-17 23:29N 35°26' E 139°41'0 0.0
2018-Jun-17 22:53N 35°26' E 139°41'0 0.0
2018-Jun-17 22:29N 35°26' E 139°41'1 1.6
2018-Jun-17 22:00N 35°25' E 139°42'611.5
2018-Jun-17 21:30N 35°19' E 139°43'612.3
2018-Jun-17 21:00N 35°14' E 139°47'612.4
2018-Jun-17 20:30N 35°08' E 139°45'24510.0
2018-Jun-16 20:04N 33°47' E 135°04'113.2
2018-Jun-16 20:00N 33°47' E 135°04'612.6
2018-Jun-16 19:30N 33°53' E 134°60'612.5
2018-Jun-16 19:00N 33°59' E 135°00'612.6
2018-Jun-16 18:30N 34°05' E 135°01'612.6
2018-Jun-16 18:00N 34°11' E 135°03'5 9.2
2018-Jun-16 17:30N 34°14' E 135°08'0 0.3
2018-Jun-16 16:59N 34°14' E 135°08'0 0.1
2018-Jun-16 16:29N 34°14' E 135°08'0 0.1
2018-Jun-16 15:59N 34°14' E 135°08'0 0.1
2018-Jun-16 15:29N 34°14' E 135°08'0 0.0
2018-Jun-16 14:59N 34°14' E 135°08'0 0.0
2018-Jun-16 14:29N 34°14' E 135°08'0 0.1
2018-Jun-16 13:59N 34°14' E 135°08'0 0.1
2018-Jun-16 13:29N 34°14' E 135°08'0 0.0
2018-Jun-16 12:56N 34°14' E 135°08'0 0.1
2018-Jun-16 12:29N 34°14' E 135°08'0 0.1
2018-Jun-16 11:56N 34°14' E 135°08'0 0.0
2018-Jun-16 11:29N 34°14' E 135°08'0 0.1
2018-Jun-16 10:59N 34°14' E 135°08'0 0.1
2018-Jun-16 10:29N 34°14' E 135°08'0 0.0
2018-Jun-16 09:59N 34°14' E 135°08'0 0.0
2018-Jun-16 09:29N 34°14' E 135°08'0 0.0
2018-Jun-16 08:59N 34°14' E 135°08'0 0.0
2018-Jun-16 08:29N 34°14' E 135°08'0 0.0
2018-Jun-16 07:59N 34°14' E 135°08'0 0.0
2018-Jun-16 07:29N 34°14' E 135°08'0 0.0
2018-Jun-16 06:59N 34°14' E 135°08'0 0.0
2018-Jun-16 06:29N 34°14' E 135°08'0 0.0
2018-Jun-16 05:59N 34°14' E 135°08'0 0.0
2018-Jun-16 05:29N 34°14' E 135°08'0 0.0
2018-Jun-16 04:56N 34°14' E 135°08'0 0.0
2018-Jun-16 04:29N 34°14' E 135°08'0 0.0
2018-Jun-16 03:59N 34°14' E 135°08'0 0.0
2018-Jun-16 03:29N 34°14' E 135°08'0 0.0
2018-Jun-16 02:59N 34°14' E 135°08'0 0.0
2018-Jun-16 02:29N 34°14' E 135°08'0 0.0
2018-Jun-16 01:56N 34°14' E 135°08'0 0.0
2018-Jun-16 01:29N 34°14' E 135°08'0 0.0
2018-Jun-16 00:59N 34°14' E 135°08'0 0.0
2018-Jun-16 00:29N 34°14' E 135°08'0 0.0
2018-Jun-15 23:59N 34°14' E 135°08'0 0.0
2018-Jun-15 23:29N 34°14' E 135°08'0 0.0
2018-Jun-15 22:59N 34°14' E 135°08'0 0.0
2018-Jun-15 22:29N 34°14' E 135°08'0 0.1
2018-Jun-15 22:00N 34°14' E 135°08'1 2.9
2018-Jun-15 21:31N 34°14' E 135°06'5 9.4
2018-Jun-15 21:01N 34°10' E 135°03'3 6.9
2018-Jun-15 20:30N 34°07' E 135°01'2 3.3
2018-Jun-15 20:01N 34°06' E 135°00'5 9.9
2018-Jun-15 19:31N 34°01' E 134°58'510.0
2018-Jun-15 19:00N 33°56' E 134°56'5 9.6
2018-Jun-15 18:26N 33°52' E 134°53'1110.3
2018-Jun-15 17:23N 33°43' E 134°45'  

Dump ship's entire track history